sensor_id;sensor_type;location;lat;lon;timestamp;pressure;altitude;pressure_sealevel;temperature;humidity
61618;BME280;47518;51.776;9.370;2023-05-03T00:00:16;101473.31;;;5.56;76.80
61618;BME280;47518;51.776;9.370;2023-05-03T00:02:45;101477.69;;;5.46;77.07
61618;BME280;47518;51.776;9.370;2023-05-03T00:05:10;101478.28;;;5.49;76.61
61618;BME280;47518;51.776;9.370;2023-05-03T00:07:41;101474.38;;;5.30;76.65
61618;BME280;47518;51.776;9.370;2023-05-03T00:10:13;101477.69;;;5.09;78.32
61618;BME280;47518;51.776;9.370;2023-05-03T00:12:41;101481.09;;;5.00;78.31
61618;BME280;47518;51.776;9.370;2023-05-03T00:15:07;101486.13;;;5.05;78.62
61618;BME280;47518;51.776;9.370;2023-05-03T00:17:33;101484.53;;;5.02;78.74
61618;BME280;47518;51.776;9.370;2023-05-03T00:19:59;101487.91;;;5.17;76.97
61618;BME280;47518;51.776;9.370;2023-05-03T00:22:25;101480.97;;;5.02;77.81
61618;BME280;47518;51.776;9.370;2023-05-03T00:24:51;101476.38;;;4.91;78.00
61618;BME280;47518;51.776;9.370;2023-05-03T00:27:17;101476.00;;;4.95;77.87
61618;BME280;47518;51.776;9.370;2023-05-03T00:29:42;101478.44;;;4.87;77.94
61618;BME280;47518;51.776;9.370;2023-05-03T00:32:07;101475.75;;;4.87;78.25
61618;BME280;47518;51.776;9.370;2023-05-03T00:34:34;101474.75;;;4.88;78.39
61618;BME280;47518;51.776;9.370;2023-05-03T00:37:00;101476.94;;;4.71;78.89
61618;BME280;47518;51.776;9.370;2023-05-03T00:39:28;101483.84;;;4.62;78.59
61618;BME280;47518;51.776;9.370;2023-05-03T00:42:04;101483.22;;;4.58;78.44
61618;BME280;47518;51.776;9.370;2023-05-03T00:44:32;101484.47;;;4.78;78.99
61618;BME280;47518;51.776;9.370;2023-05-03T00:46:58;101485.06;;;4.45;79.67
61618;BME280;47518;51.776;9.370;2023-05-03T00:49:24;101478.69;;;4.46;80.19
61618;BME280;47518;51.776;9.370;2023-05-03T00:51:52;101478.16;;;4.54;78.82
61618;BME280;47518;51.776;9.370;2023-05-03T00:54:17;101484.53;;;4.53;78.49
61618;BME280;47518;51.776;9.370;2023-05-03T00:56:43;101472.88;;;4.52;79.00
61618;BME280;47518;51.776;9.370;2023-05-03T00:59:10;101482.34;;;4.58;78.05
61618;BME280;47518;51.776;9.370;2023-05-03T01:01:36;101470.94;;;4.54;77.74
61618;BME280;47518;51.776;9.370;2023-05-03T01:04:02;101470.38;;;4.49;78.33
61618;BME280;47518;51.776;9.370;2023-05-03T01:09:20;101467.25;;;4.68;78.32
61618;BME280;47518;51.776;9.370;2023-05-03T01:11:56;101472.09;;;4.63;78.54
61618;BME280;47518;51.776;9.370;2023-05-03T01:14:31;101470.50;;;4.48;79.40
61618;BME280;47518;51.776;9.370;2023-05-03T01:17:08;101466.84;;;4.36;80.02
61618;BME280;47518;51.776;9.370;2023-05-03T01:19:41;101478.47;;;4.36;79.74
61618;BME280;47518;51.776;9.370;2023-05-03T01:25:05;101476.44;;;4.27;79.11
61618;BME280;47518;51.776;9.370;2023-05-03T01:27:31;101470.63;;;4.21;78.43
61618;BME280;47518;51.776;9.370;2023-05-03T01:29:57;101480.41;;;3.96;78.85
61618;BME280;47518;51.776;9.370;2023-05-03T01:32:28;101484.50;;;4.15;79.35
61618;BME280;47518;51.776;9.370;2023-05-03T01:35:03;101480.53;;;4.20;79.25
61618;BME280;47518;51.776;9.370;2023-05-03T01:37:39;101479.78;;;4.18;78.61
61618;BME280;47518;51.776;9.370;2023-05-03T01:40:07;101482.38;;;4.20;79.83
61618;BME280;47518;51.776;9.370;2023-05-03T01:42:35;101486.22;;;4.16;79.57
61618;BME280;47518;51.776;9.370;2023-05-03T01:45:03;101482.47;;;4.05;78.61
61618;BME280;47518;51.776;9.370;2023-05-03T01:47:29;101490.75;;;4.02;79.34
61618;BME280;47518;51.776;9.370;2023-05-03T01:49:55;101488.84;;;4.17;79.27
61618;BME280;47518;51.776;9.370;2023-05-03T01:52:23;101485.25;;;4.17;78.80
61618;BME280;47518;51.776;9.370;2023-05-03T01:54:52;101487.09;;;4.16;78.25
61618;BME280;47518;51.776;9.370;2023-05-03T01:57:17;101471.38;;;4.10;78.24
61618;BME280;47518;51.776;9.370;2023-05-03T01:59:43;101483.72;;;3.87;79.64
61618;BME280;47518;51.776;9.370;2023-05-03T02:02:08;101486.63;;;3.84;79.74
61618;BME280;47518;51.776;9.370;2023-05-03T02:04:39;101490.97;;;3.99;79.66
61618;BME280;47518;51.776;9.370;2023-05-03T02:07:05;101487.06;;;3.91;79.06
61618;BME280;47518;51.776;9.370;2023-05-03T02:09:30;101486.41;;;3.87;78.76
61618;BME280;47518;51.776;9.370;2023-05-03T02:11:55;101495.25;;;3.89;78.30
61618;BME280;47518;51.776;9.370;2023-05-03T02:14:21;101488.38;;;3.98;79.24
61618;BME280;47518;51.776;9.370;2023-05-03T02:16:47;101485.66;;;3.72;80.30
61618;BME280;47518;51.776;9.370;2023-05-03T02:19:12;101501.59;;;3.88;79.15
61618;BME280;47518;51.776;9.370;2023-05-03T02:21:38;101497.19;;;3.87;79.27
61618;BME280;47518;51.776;9.370;2023-05-03T02:24:04;101500.84;;;3.86;79.70
61618;BME280;47518;51.776;9.370;2023-05-03T02:26:29;101511.06;;;3.54;79.61
61618;BME280;47518;51.776;9.370;2023-05-03T02:28:58;101505.91;;;3.51;80.26
61618;BME280;47518;51.776;9.370;2023-05-03T02:31:23;101511.19;;;3.53;79.74
61618;BME280;47518;51.776;9.370;2023-05-03T02:33:49;101517.56;;;3.64;79.36
61618;BME280;47518;51.776;9.370;2023-05-03T02:36:15;101519.19;;;3.67;78.87
61618;BME280;47518;51.776;9.370;2023-05-03T02:38:40;101519.75;;;3.72;78.83
61618;BME280;47518;51.776;9.370;2023-05-03T02:41:05;101523.91;;;3.63;79.71
61618;BME280;47518;51.776;9.370;2023-05-03T02:43:31;101525.78;;;3.75;78.93
61618;BME280;47518;51.776;9.370;2023-05-03T02:45:59;101527.34;;;3.65;79.06
61618;BME280;47518;51.776;9.370;2023-05-03T02:48:27;101519.13;;;3.54;80.15
61618;BME280;47518;51.776;9.370;2023-05-03T02:50:52;101526.28;;;3.41;80.15
61618;BME280;47518;51.776;9.370;2023-05-03T02:53:19;101525.22;;;3.43;80.33
61618;BME280;47518;51.776;9.370;2023-05-03T02:55:44;101531.63;;;3.55;80.91
61618;BME280;47518;51.776;9.370;2023-05-03T02:58:10;101529.91;;;3.54;80.66
61618;BME280;47518;51.776;9.370;2023-05-03T03:00:36;101531.72;;;3.54;80.29
61618;BME280;47518;51.776;9.370;2023-05-03T03:03:01;101523.56;;;3.55;79.87
61618;BME280;47518;51.776;9.370;2023-05-03T03:05:59;101530.97;;;3.51;80.16
61618;BME280;47518;51.776;9.370;2023-05-03T03:08:25;101530.22;;;3.49;79.53
61618;BME280;47518;51.776;9.370;2023-05-03T03:10:50;101523.19;;;3.47;79.34
61618;BME280;47518;51.776;9.370;2023-05-03T03:13:16;101524.78;;;3.37;79.75
61618;BME280;47518;51.776;9.370;2023-05-03T03:15:41;101533.47;;;3.13;79.78
61618;BME280;47518;51.776;9.370;2023-05-03T03:18:06;101538.53;;;3.18;80.11
61618;BME280;47518;51.776;9.370;2023-05-03T03:20:35;101529.34;;;3.08;79.63
61618;BME280;47518;51.776;9.370;2023-05-03T03:23:00;101535.56;;;3.22;80.21
61618;BME280;47518;51.776;9.370;2023-05-03T03:25:25;101536.25;;;3.12;80.40
61618;BME280;47518;51.776;9.370;2023-05-03T03:27:51;101532.88;;;3.22;79.49
61618;BME280;47518;51.776;9.370;2023-05-03T03:30:16;101536.72;;;3.18;80.21
61618;BME280;47518;51.776;9.370;2023-05-03T03:32:41;101535.13;;;3.02;80.02
61618;BME280;47518;51.776;9.370;2023-05-03T03:35:08;101538.69;;;3.02;79.32
61618;BME280;47518;51.776;9.370;2023-05-03T03:37:34;101540.09;;;3.08;79.93
61618;BME280;47518;51.776;9.370;2023-05-03T03:40:03;101535.88;;;3.18;79.42
61618;BME280;47518;51.776;9.370;2023-05-03T03:42:29;101536.25;;;3.12;78.90
61618;BME280;47518;51.776;9.370;2023-05-03T03:44:55;101531.59;;;3.01;78.88
61618;BME280;47518;51.776;9.370;2023-05-03T03:47:20;101535.91;;;2.89;80.28
61618;BME280;47518;51.776;9.370;2023-05-03T03:49:46;101537.53;;;2.92;81.37
61618;BME280;47518;51.776;9.370;2023-05-03T03:52:11;101543.88;;;2.91;80.63
61618;BME280;47518;51.776;9.370;2023-05-03T03:54:36;101534.75;;;2.93;80.85
61618;BME280;47518;51.776;9.370;2023-05-03T03:57:02;101534.28;;;3.01;80.92
61618;BME280;47518;51.776;9.370;2023-05-03T03:59:28;101535.03;;;2.89;81.50
61618;BME280;47518;51.776;9.370;2023-05-03T04:01:53;101532.44;;;2.87;80.94
61618;BME280;47518;51.776;9.370;2023-05-03T04:04:19;101532.44;;;2.87;80.37
61618;BME280;47518;51.776;9.370;2023-05-03T04:06:45;101524.91;;;2.80;80.08
61618;BME280;47518;51.776;9.370;2023-05-03T04:09:13;101528.63;;;2.77;79.28
61618;BME280;47518;51.776;9.370;2023-05-03T04:11:41;101524.56;;;2.99;79.53
61618;BME280;47518;51.776;9.370;2023-05-03T04:14:06;101531.59;;;3.01;79.72
61618;BME280;47518;51.776;9.370;2023-05-03T04:16:35;101522.34;;;3.05;80.63
61618;BME280;47518;51.776;9.370;2023-05-03T04:19:00;101532.06;;;2.93;79.55
61618;BME280;47518;51.776;9.370;2023-05-03T04:21:25;101528.41;;;2.95;80.86
61618;BME280;47518;51.776;9.370;2023-05-03T04:23:52;101535.66;;;3.21;79.25
61618;BME280;47518;51.776;9.370;2023-05-03T04:26:18;101527.63;;;3.07;79.79
61618;BME280;47518;51.776;9.370;2023-05-03T04:28:49;101533.28;;;3.16;80.44
61618;BME280;47518;51.776;9.370;2023-05-03T04:31:15;101538.06;;;3.11;80.01
61618;BME280;47518;51.776;9.370;2023-05-03T04:33:40;101525.59;;;3.10;80.12
61618;BME280;47518;51.776;9.370;2023-05-03T04:36:08;101540.97;;;3.08;78.81
61618;BME280;47518;51.776;9.370;2023-05-03T04:38:33;101550.28;;;3.03;81.05
61618;BME280;47518;51.776;9.370;2023-05-03T04:40:59;101546.13;;;3.11;79.57
61618;BME280;47518;51.776;9.370;2023-05-03T04:43:24;101545.34;;;3.23;79.96
61618;BME280;47518;51.776;9.370;2023-05-03T04:45:53;101555.50;;;3.33;78.99
61618;BME280;47518;51.776;9.370;2023-05-03T04:48:18;101559.63;;;3.38;79.25
61618;BME280;47518;51.776;9.370;2023-05-03T04:50:44;101551.84;;;3.34;79.80
61618;BME280;47518;51.776;9.370;2023-05-03T04:53:09;101558.34;;;3.44;78.98
61618;BME280;47518;51.776;9.370;2023-05-03T04:55:35;101545.22;;;3.39;79.40
61618;BME280;47518;51.776;9.370;2023-05-03T04:58:00;101545.59;;;3.47;79.40
61618;BME280;47518;51.776;9.370;2023-05-03T05:00:26;101549.47;;;3.56;79.53
61618;BME280;47518;51.776;9.370;2023-05-03T05:02:51;101538.97;;;3.66;78.46
61618;BME280;47518;51.776;9.370;2023-05-03T05:05:42;101553.31;;;3.79;79.34
61618;BME280;47518;51.776;9.370;2023-05-03T05:08:26;101542.66;;;3.77;78.79
61618;BME280;47518;51.776;9.370;2023-05-03T05:10:52;101540.03;;;4.03;77.93
61618;BME280;47518;51.776;9.370;2023-05-03T05:13:17;101549.13;;;4.27;77.49
61618;BME280;47518;51.776;9.370;2023-05-03T05:15:43;101545.03;;;4.22;76.46
61618;BME280;47518;51.776;9.370;2023-05-03T05:18:08;101537.72;;;4.24;77.36
61618;BME280;47518;51.776;9.370;2023-05-03T05:20:34;101543.84;;;4.51;77.09
61618;BME280;47518;51.776;9.370;2023-05-03T05:23:00;101546.13;;;4.70;75.20
61618;BME280;47518;51.776;9.370;2023-05-03T05:25:38;101547.63;;;4.87;75.40
61618;BME280;47518;51.776;9.370;2023-05-03T05:28:05;101545.25;;;4.82;75.67
61618;BME280;47518;51.776;9.370;2023-05-03T05:34:35;101552.03;;;5.37;73.87
61618;BME280;47518;51.776;9.370;2023-05-03T05:40:15;101561.34;;;5.20;74.90
61618;BME280;47518;51.776;9.370;2023-05-03T05:42:55;101559.94;;;5.27;73.66
61618;BME280;47518;51.776;9.370;2023-05-03T05:48:56;101562.31;;;5.56;75.12
61618;BME280;47518;51.776;9.370;2023-05-03T05:48:57;101566.28;;;5.26;73.23
61618;BME280;47518;51.776;9.370;2023-05-03T05:51:28;101562.28;;;5.69;74.16
61618;BME280;47518;51.776;9.370;2023-05-03T05:57:41;101550.16;;;5.98;71.42
61618;BME280;47518;51.776;9.370;2023-05-03T06:00:25;101551.41;;;6.05;72.21
61618;BME280;47518;51.776;9.370;2023-05-03T06:02:51;101557.47;;;6.20;72.19
61618;BME280;47518;51.776;9.370;2023-05-03T06:08:37;101561.09;;;6.43;73.05
61618;BME280;47518;51.776;9.370;2023-05-03T06:35:09;101579.31;;;7.53;68.50
61618;BME280;47518;51.776;9.370;2023-05-03T06:37:35;101583.72;;;7.65;67.53
61618;BME280;47518;51.776;9.370;2023-05-03T06:40:00;101579.59;;;7.82;66.76
61618;BME280;47518;51.776;9.370;2023-05-03T06:42:25;101574.19;;;7.82;67.14
61618;BME280;47518;51.776;9.370;2023-05-03T06:44:55;101574.75;;;8.17;67.36
61618;BME280;47518;51.776;9.370;2023-05-03T06:47:20;101578.69;;;7.93;66.72
61618;BME280;47518;51.776;9.370;2023-05-03T06:49:46;101575.34;;;8.00;67.75
61618;BME280;47518;51.776;9.370;2023-05-03T06:52:11;101577.56;;;7.95;67.05
61618;BME280;47518;51.776;9.370;2023-05-03T06:54:36;101576.03;;;8.13;66.88
61618;BME280;47518;51.776;9.370;2023-05-03T06:57:02;101570.53;;;8.04;67.18
61618;BME280;47518;51.776;9.370;2023-05-03T06:59:29;101573.69;;;7.88;68.26
61618;BME280;47518;51.776;9.370;2023-05-03T07:01:54;101571.34;;;7.83;66.90
61618;BME280;47518;51.776;9.370;2023-05-03T07:04:22;101580.72;;;8.11;67.50
61618;BME280;47518;51.776;9.370;2023-05-03T07:06:47;101575.28;;;8.64;66.65
61618;BME280;47518;51.776;9.370;2023-05-03T07:09:13;101574.41;;;9.15;63.70
61618;BME280;47518;51.776;9.370;2023-05-03T07:11:38;101577.31;;;9.02;63.08
61618;BME280;47518;51.776;9.370;2023-05-03T07:14:09;101571.41;;;8.88;62.71
61618;BME280;47518;51.776;9.370;2023-05-03T07:16:34;101573.94;;;9.10;62.75
61618;BME280;47518;51.776;9.370;2023-05-03T07:18:59;101581.34;;;9.48;61.32
61618;BME280;47518;51.776;9.370;2023-05-03T07:21:25;101579.06;;;9.44;62.28
61618;BME280;47518;51.776;9.370;2023-05-03T07:23:51;101574.50;;;9.44;61.67
61618;BME280;47518;51.776;9.370;2023-05-03T07:26:16;101571.13;;;9.61;61.22
61618;BME280;47518;51.776;9.370;2023-05-03T07:28:42;101566.41;;;9.63;59.67
61618;BME280;47518;51.776;9.370;2023-05-03T07:31:07;101564.41;;;9.94;59.78
61618;BME280;47518;51.776;9.370;2023-05-03T07:33:35;101563.88;;;10.20;59.44
61618;BME280;47518;51.776;9.370;2023-05-03T07:36:04;101558.75;;;10.27;57.80
61618;BME280;47518;51.776;9.370;2023-05-03T07:38:29;101559.28;;;10.30;54.70
61618;BME280;47518;51.776;9.370;2023-05-03T07:40:55;101559.75;;;10.26;54.05
61618;BME280;47518;51.776;9.370;2023-05-03T07:43:20;101558.03;;;10.34;53.42
61618;BME280;47518;51.776;9.370;2023-05-03T07:45:48;101556.41;;;10.41;52.82
61618;BME280;47518;51.776;9.370;2023-05-03T07:48:13;101554.38;;;10.63;51.28
61618;BME280;47518;51.776;9.370;2023-05-03T07:50:41;101544.78;;;10.78;52.14
61618;BME280;47518;51.776;9.370;2023-05-03T07:53:10;101543.72;;;10.89;51.20
61618;BME280;47518;51.776;9.370;2023-05-03T07:55:39;101541.28;;;10.86;50.50
61618;BME280;47518;51.776;9.370;2023-05-03T07:58:05;101537.16;;;10.81;51.10
61618;BME280;47518;51.776;9.370;2023-05-03T08:00:31;101544.31;;;10.82;51.41
61618;BME280;47518;51.776;9.370;2023-05-03T08:02:56;101540.69;;;11.01;49.94
61618;BME280;47518;51.776;9.370;2023-05-03T08:05:24;101542.84;;;11.25;47.76
61618;BME280;47518;51.776;9.370;2023-05-03T08:07:49;101542.19;;;11.41;46.89
61618;BME280;47518;51.776;9.370;2023-05-03T08:10:15;101543.16;;;11.50;47.32
61618;BME280;47518;51.776;9.370;2023-05-03T08:12:42;101539.47;;;11.41;46.81
61618;BME280;47518;51.776;9.370;2023-05-03T08:15:07;101544.00;;;11.23;48.49
61618;BME280;47518;51.776;9.370;2023-05-03T08:17:48;101540.84;;;11.45;49.93
61618;BME280;47518;51.776;9.370;2023-05-03T08:20:16;101532.03;;;11.61;47.82
61618;BME280;47518;51.776;9.370;2023-05-03T08:22:44;101537.06;;;11.38;46.18
61618;BME280;47518;51.776;9.370;2023-05-03T08:25:10;101527.44;;;11.61;46.86
61618;BME280;47518;51.776;9.370;2023-05-03T08:27:36;101520.28;;;11.78;45.97
61618;BME280;47518;51.776;9.370;2023-05-03T08:30:08;101526.00;;;11.39;47.96
61618;BME280;47518;51.776;9.370;2023-05-03T08:32:36;101520.81;;;11.64;47.41
61618;BME280;47518;51.776;9.370;2023-05-03T08:35:02;101537.97;;;11.74;49.43
61618;BME280;47518;51.776;9.370;2023-05-03T08:37:37;101523.94;;;11.69;47.46
61618;BME280;47518;51.776;9.370;2023-05-03T08:40:03;101525.47;;;11.81;48.26
61618;BME280;47518;51.776;9.370;2023-05-03T08:42:30;101517.88;;;11.75;48.54
61618;BME280;47518;51.776;9.370;2023-05-03T08:44:58;101528.41;;;11.88;47.84
61618;BME280;47518;51.776;9.370;2023-05-03T08:47:23;101520.34;;;11.68;46.97
61618;BME280;47518;51.776;9.370;2023-05-03T08:49:49;101520.41;;;12.04;48.47
61618;BME280;47518;51.776;9.370;2023-05-03T08:52:17;101512.09;;;12.32;46.78
61618;BME280;47518;51.776;9.370;2023-05-03T08:54:44;101522.69;;;12.35;47.15
61618;BME280;47518;51.776;9.370;2023-05-03T08:57:13;101517.22;;;12.52;45.81
61618;BME280;47518;51.776;9.370;2023-05-03T08:59:54;101521.13;;;12.84;45.13
61618;BME280;47518;51.776;9.370;2023-05-03T09:02:31;101513.38;;;12.63;44.37
61618;BME280;47518;51.776;9.370;2023-05-03T09:08:16;101508.63;;;12.73;42.43
61618;BME280;47518;51.776;9.370;2023-05-03T09:10:49;101517.28;;;12.95;43.63
61618;BME280;47518;51.776;9.370;2023-05-03T09:13:15;101515.41;;;12.95;42.84
61618;BME280;47518;51.776;9.370;2023-05-03T09:15:41;101515.00;;;12.82;43.87
61618;BME280;47518;51.776;9.370;2023-05-03T09:21:27;101511.53;;;13.06;44.36
61618;BME280;47518;51.776;9.370;2023-05-03T09:24:20;101505.69;;;13.27;43.71
61618;BME280;47518;51.776;9.370;2023-05-03T09:26:58;101498.00;;;13.22;43.41
61618;BME280;47518;51.776;9.370;2023-05-03T09:29:53;101508.50;;;13.17;43.65
61618;BME280;47518;51.776;9.370;2023-05-03T09:32:21;101503.22;;;13.15;42.01
61618;BME280;47518;51.776;9.370;2023-05-03T09:35:10;101499.22;;;13.36;42.09
61618;BME280;47518;51.776;9.370;2023-05-03T09:37:40;101491.50;;;13.23;42.93
61618;BME280;47518;51.776;9.370;2023-05-03T09:40:09;101486.94;;;13.32;43.99
61618;BME280;47518;51.776;9.370;2023-05-03T09:43:07;101496.28;;;13.29;43.10
61618;BME280;47518;51.776;9.370;2023-05-03T09:45:46;101487.06;;;13.22;43.17
61618;BME280;47518;51.776;9.370;2023-05-03T09:48:12;101504.19;;;13.40;42.71
61618;BME280;47518;51.776;9.370;2023-05-03T09:53:39;101494.31;;;13.48;40.77
61618;BME280;47518;51.776;9.370;2023-05-03T09:56:10;101494.00;;;13.75;43.78
61618;BME280;47518;51.776;9.370;2023-05-03T09:58:38;101491.09;;;13.77;41.55
61618;BME280;47518;51.776;9.370;2023-05-03T10:01:07;101482.78;;;13.94;41.33
61618;BME280;47518;51.776;9.370;2023-05-03T10:03:44;101483.22;;;13.49;41.71
61618;BME280;47518;51.776;9.370;2023-05-03T10:10:14;101477.13;;;13.71;41.29
61618;BME280;47518;51.776;9.370;2023-05-03T10:13:25;101483.78;;;13.93;40.40
61618;BME280;47518;51.776;9.370;2023-05-03T10:16:35;101484.97;;;13.66;42.02
61618;BME280;47518;51.776;9.370;2023-05-03T10:22:06;101483.94;;;14.00;41.76
61618;BME280;47518;51.776;9.370;2023-05-03T10:24:33;101475.25;;;14.05;40.68
61618;BME280;47518;51.776;9.370;2023-05-03T10:27:06;101471.50;;;13.89;41.55
61618;BME280;47518;51.776;9.370;2023-05-03T10:32:30;101467.72;;;15.03;40.42
61618;BME280;47518;51.776;9.370;2023-05-03T10:35:14;101455.94;;;15.87;38.79
61618;BME280;47518;51.776;9.370;2023-05-03T10:37:42;101461.31;;;16.18;36.92
61618;BME280;47518;51.776;9.370;2023-05-03T10:40:10;101459.97;;;16.52;35.67
61618;BME280;47518;51.776;9.370;2023-05-03T10:42:38;101466.03;;;17.57;34.66
61618;BME280;47518;51.776;9.370;2023-05-03T10:45:06;101459.69;;;18.42;33.45
61618;BME280;47518;51.776;9.370;2023-05-03T10:47:33;101464.22;;;18.28;33.86
61618;BME280;47518;51.776;9.370;2023-05-03T10:52:55;101462.94;;;19.21;31.44
61618;BME280;47518;51.776;9.370;2023-05-03T10:55:22;101444.50;;;18.81;32.16
61618;BME280;47518;51.776;9.370;2023-05-03T10:57:52;101443.63;;;19.89;30.41
61618;BME280;47518;51.776;9.370;2023-05-03T11:00:35;101438.06;;;21.46;27.07
61618;BME280;47518;51.776;9.370;2023-05-03T11:03:09;101436.19;;;21.72;26.77
61618;BME280;47518;51.776;9.370;2023-05-03T11:05:47;101428.75;;;21.72;27.08
61618;BME280;47518;51.776;9.370;2023-05-03T11:08:15;101431.25;;;22.98;25.54
61618;BME280;47518;51.776;9.370;2023-05-03T11:10:43;101425.09;;;24.28;23.72
61618;BME280;47518;51.776;9.370;2023-05-03T11:13:09;101418.69;;;24.86;22.22
61618;BME280;47518;51.776;9.370;2023-05-03T11:15:38;101418.00;;;24.79;22.09
61618;BME280;47518;51.776;9.370;2023-05-03T11:18:08;101411.69;;;26.09;21.47
61618;BME280;47518;51.776;9.370;2023-05-03T11:20:36;101424.41;;;24.80;22.64
61618;BME280;47518;51.776;9.370;2023-05-03T11:23:05;101415.22;;;26.94;20.13
61618;BME280;47518;51.776;9.370;2023-05-03T11:25:34;101416.00;;;26.17;20.21
61618;BME280;47518;51.776;9.370;2023-05-03T11:28:00;101415.81;;;25.62;20.90
61618;BME280;47518;51.776;9.370;2023-05-03T11:30:27;101426.06;;;24.92;22.32
61618;BME280;47518;51.776;9.370;2023-05-03T11:32:53;101415.34;;;26.43;20.94
61618;BME280;47518;51.776;9.370;2023-05-03T11:35:22;101407.97;;;25.58;21.08
61618;BME280;47518;51.776;9.370;2023-05-03T11:37:51;101415.09;;;24.39;21.99
61618;BME280;47518;51.776;9.370;2023-05-03T11:40:19;101402.75;;;24.23;22.83
61618;BME280;47518;51.776;9.370;2023-05-03T11:42:54;101409.28;;;22.60;24.66
61618;BME280;47518;51.776;9.370;2023-05-03T11:45:21;101416.75;;;22.60;25.00
61618;BME280;47518;51.776;9.370;2023-05-03T11:47:48;101406.75;;;23.62;23.13
61618;BME280;47518;51.776;9.370;2023-05-03T11:50:13;101409.22;;;22.85;24.20
61618;BME280;47518;51.776;9.370;2023-05-03T11:52:39;101406.50;;;23.64;23.72
61618;BME280;47518;51.776;9.370;2023-05-03T11:55:06;101400.88;;;24.99;22.56
61618;BME280;47518;51.776;9.370;2023-05-03T11:57:32;101400.88;;;25.96;21.01
61618;BME280;47518;51.776;9.370;2023-05-03T12:00:19;101392.84;;;25.83;20.33
61618;BME280;47518;51.776;9.370;2023-05-03T12:02:47;101397.41;;;24.92;21.39
61618;BME280;47518;51.776;9.370;2023-05-03T12:05:14;101390.16;;;23.85;22.67
61618;BME280;47518;51.776;9.370;2023-05-03T12:07:40;101390.66;;;22.86;23.57
61618;BME280;47518;51.776;9.370;2023-05-03T12:10:15;101389.72;;;22.12;24.77
61618;BME280;47518;51.776;9.370;2023-05-03T12:12:58;101386.09;;;20.39;27.15
61618;BME280;47518;51.776;9.370;2023-05-03T12:15:30;101379.94;;;19.84;28.49
61618;BME280;47518;51.776;9.370;2023-05-03T12:17:58;101376.75;;;18.93;30.21
61618;BME280;47518;51.776;9.370;2023-05-03T12:20:25;101386.69;;;18.25;30.99
61618;BME280;47518;51.776;9.370;2023-05-03T12:22:54;101379.63;;;17.66;31.63
61618;BME280;47518;51.776;9.370;2023-05-03T12:25:26;101379.78;;;17.79;32.50
61618;BME280;47518;51.776;9.370;2023-05-03T12:28:04;101364.91;;;17.95;32.30
61618;BME280;47518;51.776;9.370;2023-05-03T12:30:38;101351.69;;;18.47;31.12
61618;BME280;47518;51.776;9.370;2023-05-03T12:33:11;101354.31;;;19.03;30.32
61618;BME280;47518;51.776;9.370;2023-05-03T12:35:42;101356.72;;;18.36;31.46
61618;BME280;47518;51.776;9.370;2023-05-03T12:38:13;101352.75;;;18.11;32.28
61618;BME280;47518;51.776;9.370;2023-05-03T12:40:38;101350.28;;;18.23;31.30
61618;BME280;47518;51.776;9.370;2023-05-03T12:43:10;101352.22;;;18.01;32.81
61618;BME280;47518;51.776;9.370;2023-05-03T12:45:35;101352.78;;;17.47;33.61
61618;BME280;47518;51.776;9.370;2023-05-03T12:48:12;101342.78;;;17.18;34.36
61618;BME280;47518;51.776;9.370;2023-05-03T12:50:46;101343.88;;;17.02;34.39
61618;BME280;47518;51.776;9.370;2023-05-03T12:53:11;101353.34;;;17.00;34.08
61618;BME280;47518;51.776;9.370;2023-05-03T12:55:37;101351.31;;;16.72;34.45
61618;BME280;47518;51.776;9.370;2023-05-03T12:58:06;101351.88;;;16.82;36.40
61618;BME280;47518;51.776;9.370;2023-05-03T13:00:31;101343.34;;;16.92;36.32
61618;BME280;47518;51.776;9.370;2023-05-03T13:02:57;101351.03;;;16.82;35.22
61618;BME280;47518;51.776;9.370;2023-05-03T13:06:00;101333.75;;;16.88;34.62
61618;BME280;47518;51.776;9.370;2023-05-03T13:08:29;101333.13;;;16.71;34.71
61618;BME280;47518;51.776;9.370;2023-05-03T13:10:54;101328.84;;;16.54;35.39
61618;BME280;47518;51.776;9.370;2023-05-03T13:13:20;101327.66;;;16.56;35.44
61618;BME280;47518;51.776;9.370;2023-05-03T13:15:45;101335.94;;;16.63;35.03
61618;BME280;47518;51.776;9.370;2023-05-03T13:18:11;101325.66;;;16.50;35.14
61618;BME280;47518;51.776;9.370;2023-05-03T13:20:41;101323.84;;;16.57;35.48
61618;BME280;47518;51.776;9.370;2023-05-03T13:23:08;101314.38;;;16.75;34.21
61618;BME280;47518;51.776;9.370;2023-05-03T13:25:34;101312.03;;;16.72;34.89
61618;BME280;47518;51.776;9.370;2023-05-03T13:28:00;101319.81;;;16.89;35.26
61618;BME280;47518;51.776;9.370;2023-05-03T13:30:25;101313.06;;;17.07;34.00
61618;BME280;47518;51.776;9.370;2023-05-03T13:32:54;101312.09;;;17.14;34.01
61618;BME280;47518;51.776;9.370;2023-05-03T13:38:24;101290.56;;;17.18;33.71
61618;BME280;47518;51.776;9.370;2023-05-03T13:40:49;101301.81;;;17.23;33.41
61618;BME280;47518;51.776;9.370;2023-05-03T13:43:16;101294.03;;;17.05;34.62
61618;BME280;47518;51.776;9.370;2023-05-03T13:45:41;101299.00;;;17.16;34.52
61618;BME280;47518;51.776;9.370;2023-05-03T13:48:09;101299.31;;;17.07;33.99
61618;BME280;47518;51.776;9.370;2023-05-03T13:50:35;101290.50;;;16.75;34.92
61618;BME280;47518;51.776;9.370;2023-05-03T13:53:01;101291.47;;;16.82;34.55
61618;BME280;47518;51.776;9.370;2023-05-03T13:55:29;101284.53;;;17.08;34.60
61618;BME280;47518;51.776;9.370;2023-05-03T13:57:55;101277.34;;;17.07;35.28
61618;BME280;47518;51.776;9.370;2023-05-03T14:00:22;101289.75;;;17.45;33.68
61618;BME280;47518;51.776;9.370;2023-05-03T14:02:50;101282.66;;;17.30;33.45
61618;BME280;47518;51.776;9.370;2023-05-03T14:05:32;101282.31;;;17.39;33.52
61618;BME280;47518;51.776;9.370;2023-05-03T14:08:00;101278.91;;;17.37;33.23
61618;BME280;47518;51.776;9.370;2023-05-03T14:10:25;101261.81;;;17.42;33.52
61618;BME280;47518;51.776;9.370;2023-05-03T14:12:55;101272.81;;;17.42;33.07